sensor_id;sensor_type;location;lat;lon;timestamp;pressure;altitude;pressure_sealevel;temperature;humidity
56737;BME280;42618;51.226;4.910;2023-08-30T00:01:26;49667.19;;;-146.94;94.89
56737;BME280;42618;51.226;4.910;2023-08-30T00:03:53;49681.16;;;-146.94;95.29
56737;BME280;42618;51.226;4.910;2023-08-30T00:06:21;49713.06;;;-146.94;96.41
56737;BME280;42618;51.226;4.910;2023-08-30T00:08:47;49675.19;;;-146.94;96.17
56737;BME280;42618;51.226;4.910;2023-08-30T00:11:14;49663.22;;;-146.94;95.99
56737;BME280;42618;51.226;4.910;2023-08-30T00:13:41;49689.13;;;-146.94;95.30
56737;BME280;42618;51.226;4.910;2023-08-30T00:16:09;49703.09;;;-146.94;95.95
56737;BME280;42618;51.226;4.910;2023-08-30T00:18:35;49723.03;;;-146.94;95.24
56737;BME280;42618;51.226;4.910;2023-08-30T00:21:02;49677.16;;;-146.94;95.92
56737;BME280;42618;51.226;4.910;2023-08-30T00:23:29;49715.03;;;-146.94;95.57
56737;BME280;42618;51.226;4.910;2023-08-30T00:25:56;49707.06;;;-146.94;94.60
56737;BME280;42618;51.226;4.910;2023-08-30T00:28:22;49697.09;;;-146.94;95.19
56737;BME280;42618;51.226;4.910;2023-08-30T00:30:53;49699.09;;;-146.94;95.93
56737;BME280;42618;51.226;4.910;2023-08-30T00:33:21;49723.03;;;-146.94;97.18
56737;BME280;42618;51.226;4.910;2023-08-30T00:35:55;49663.22;;;-146.94;97.04
56737;BME280;42618;51.226;4.910;2023-08-30T00:38:22;49721.03;;;-146.94;96.53
56737;BME280;42618;51.226;4.910;2023-08-30T00:40:49;49695.09;;;-146.94;96.34
56737;BME280;42618;51.226;4.910;2023-08-30T00:43:16;49719.03;;;-146.94;96.68
56737;BME280;42618;51.226;4.910;2023-08-30T00:45:43;49723.03;;;-146.94;96.62
56737;BME280;42618;51.226;4.910;2023-08-30T00:48:10;49671.19;;;-146.94;96.21
56737;BME280;42618;51.226;4.910;2023-08-30T00:50:39;49669.19;;;-146.94;96.55
56737;BME280;42618;51.226;4.910;2023-08-30T00:53:06;49701.09;;;-146.94;96.74
56737;BME280;42618;51.226;4.910;2023-08-30T00:55:37;49671.19;;;-146.94;95.97
56737;BME280;42618;51.226;4.910;2023-08-30T00:58:05;49675.19;;;-146.94;96.06
56737;BME280;42618;51.226;4.910;2023-08-30T01:00:32;49707.06;;;-146.94;95.82
56737;BME280;42618;51.226;4.910;2023-08-30T01:02:59;49721.03;;;-146.94;95.60
56737;BME280;42618;51.226;4.910;2023-08-30T01:05:26;49721.03;;;-146.94;95.52
56737;BME280;42618;51.226;4.910;2023-08-30T01:07:55;49697.09;;;-146.94;95.60
56737;BME280;42618;51.226;4.910;2023-08-30T01:10:28;49671.19;;;-146.94;95.73
56737;BME280;42618;51.226;4.910;2023-08-30T01:13:05;49687.13;;;-146.94;95.69
56737;BME280;42618;51.226;4.910;2023-08-30T01:15:36;49707.06;;;-146.94;95.74
56737;BME280;42618;51.226;4.910;2023-08-30T01:18:05;49659.22;;;-146.94;95.95
56737;BME280;42618;51.226;4.910;2023-08-30T01:20:35;49693.13;;;-146.94;96.09
56737;BME280;42618;51.226;4.910;2023-08-30T01:23:18;49695.09;;;-146.94;96.52
56737;BME280;42618;51.226;4.910;2023-08-30T01:28:35;49693.13;;;-146.94;96.28
56737;BME280;42618;51.226;4.910;2023-08-30T01:31:02;49689.13;;;-146.94;96.59
56737;BME280;42618;51.226;4.910;2023-08-30T01:33:30;49717.03;;;-146.94;96.56
56737;BME280;42618;51.226;4.910;2023-08-30T01:36:00;49697.09;;;-146.94;96.38
56737;BME280;42618;51.226;4.910;2023-08-30T01:38:29;49667.19;;;-146.94;96.14
56737;BME280;42618;51.226;4.910;2023-08-30T01:40:57;49715.03;;;-146.94;96.21
56737;BME280;42618;51.226;4.910;2023-08-30T01:43:26;49725.00;;;-146.94;96.41
56737;BME280;42618;51.226;4.910;2023-08-30T01:45:55;49695.09;;;-146.94;96.49
56737;BME280;42618;51.226;4.910;2023-08-30T01:48:28;49711.06;;;-146.94;96.26
56737;BME280;42618;51.226;4.910;2023-08-30T01:50:56;49707.06;;;-146.94;95.71
56737;BME280;42618;51.226;4.910;2023-08-30T01:53:27;49691.13;;;-146.94;95.68
56737;BME280;42618;51.226;4.910;2023-08-30T01:55:54;49703.09;;;-146.94;95.81
56737;BME280;42618;51.226;4.910;2023-08-30T01:58:21;49695.09;;;-146.94;95.22
56737;BME280;42618;51.226;4.910;2023-08-30T02:00:48;49697.09;;;-146.94;94.84
56737;BME280;42618;51.226;4.910;2023-08-30T02:03:15;49677.16;;;-146.94;95.53
56737;BME280;42618;51.226;4.910;2023-08-30T02:08:26;49717.03;;;-146.94;95.42
56737;BME280;42618;51.226;4.910;2023-08-30T02:11:02;49703.09;;;-146.94;95.96
56737;BME280;42618;51.226;4.910;2023-08-30T02:13:33;49687.13;;;-146.94;95.64
56737;BME280;42618;51.226;4.910;2023-08-30T02:16:01;49683.16;;;-146.94;95.41
56737;BME280;42618;51.226;4.910;2023-08-30T02:18:29;49659.22;;;-146.94;95.62
56737;BME280;42618;51.226;4.910;2023-08-30T02:20:58;49689.13;;;-146.94;95.76
56737;BME280;42618;51.226;4.910;2023-08-30T02:23:25;49699.09;;;-146.94;95.89
56737;BME280;42618;51.226;4.910;2023-08-30T02:25:54;49719.03;;;-146.94;95.67
56737;BME280;42618;51.226;4.910;2023-08-30T02:28:21;49715.03;;;-146.94;95.99
56737;BME280;42618;51.226;4.910;2023-08-30T02:30:47;49703.09;;;-146.94;95.54
56737;BME280;42618;51.226;4.910;2023-08-30T02:33:16;49671.19;;;-146.94;95.63
56737;BME280;42618;51.226;4.910;2023-08-30T02:35:43;49723.03;;;-146.94;95.93
56737;BME280;42618;51.226;4.910;2023-08-30T02:38:10;49723.03;;;-146.94;95.61
56737;BME280;42618;51.226;4.910;2023-08-30T02:40:37;49675.19;;;-146.94;95.49
56737;BME280;42618;51.226;4.910;2023-08-30T02:43:04;49693.13;;;-146.94;95.39
56737;BME280;42618;51.226;4.910;2023-08-30T02:45:30;49691.13;;;-146.94;95.62
56737;BME280;42618;51.226;4.910;2023-08-30T02:47:57;49725.00;;;-146.94;95.87
56737;BME280;42618;51.226;4.910;2023-08-30T02:50:25;49691.13;;;-146.94;95.90
56737;BME280;42618;51.226;4.910;2023-08-30T02:52:52;49689.13;;;-146.94;96.01
56737;BME280;42618;51.226;4.910;2023-08-30T02:55:19;49687.13;;;-146.94;95.67
56737;BME280;42618;51.226;4.910;2023-08-30T02:57:46;49661.22;;;-146.94;95.49
56737;BME280;42618;51.226;4.910;2023-08-30T03:00:14;49675.19;;;-146.94;95.29
56737;BME280;42618;51.226;4.910;2023-08-30T03:02:45;49703.09;;;-146.94;96.08
56737;BME280;42618;51.226;4.910;2023-08-30T03:05:13;49707.06;;;-146.94;95.49
56737;BME280;42618;51.226;4.910;2023-08-30T03:07:40;49713.06;;;-146.94;95.12
56737;BME280;42618;51.226;4.910;2023-08-30T03:10:07;49679.16;;;-146.94;95.02
56737;BME280;42618;51.226;4.910;2023-08-30T03:12:36;49665.22;;;-146.94;95.07
56737;BME280;42618;51.226;4.910;2023-08-30T03:15:03;49707.06;;;-146.94;94.95
56737;BME280;42618;51.226;4.910;2023-08-30T03:17:30;49746.94;;;-146.94;95.57
56737;BME280;42618;51.226;4.910;2023-08-30T03:19:59;49723.03;;;-146.94;95.67
56737;BME280;42618;51.226;4.910;2023-08-30T03:22:28;49721.03;;;-146.94;95.59
56737;BME280;42618;51.226;4.910;2023-08-30T03:24:55;49691.13;;;-146.94;95.56
56737;BME280;42618;51.226;4.910;2023-08-30T03:27:21;49723.03;;;-146.94;95.52
56737;BME280;42618;51.226;4.910;2023-08-30T03:29:48;49719.03;;;-146.94;96.46
56737;BME280;42618;51.226;4.910;2023-08-30T03:32:17;49703.09;;;-146.94;96.41
56737;BME280;42618;51.226;4.910;2023-08-30T03:34:47;49707.06;;;-146.94;96.96
56737;BME280;42618;51.226;4.910;2023-08-30T03:37:15;49707.06;;;-146.94;96.69
56737;BME280;42618;51.226;4.910;2023-08-30T03:39:42;49677.16;;;-146.94;96.50
56737;BME280;42618;51.226;4.910;2023-08-30T03:42:09;49709.06;;;-146.94;96.72
56737;BME280;42618;51.226;4.910;2023-08-30T03:44:37;49713.06;;;-146.94;96.54
56737;BME280;42618;51.226;4.910;2023-08-30T03:47:06;49717.03;;;-146.94;97.74
56737;BME280;42618;51.226;4.910;2023-08-30T03:49:33;49701.09;;;-146.94;97.43
56737;BME280;42618;51.226;4.910;2023-08-30T03:51:59;49707.06;;;-146.94;97.37
56737;BME280;42618;51.226;4.910;2023-08-30T03:54:27;49723.03;;;-146.94;97.47
56737;BME280;42618;51.226;4.910;2023-08-30T03:56:54;49719.03;;;-146.94;97.08
56737;BME280;42618;51.226;4.910;2023-08-30T03:59:20;49703.09;;;-146.94;97.00
56737;BME280;42618;51.226;4.910;2023-08-30T04:01:53;49679.16;;;-146.94;97.07
56737;BME280;42618;51.226;4.910;2023-08-30T04:04:20;49707.06;;;-146.94;97.14
56737;BME280;42618;51.226;4.910;2023-08-30T04:06:47;49687.13;;;-146.94;96.76
56737;BME280;42618;51.226;4.910;2023-08-30T04:09:15;49734.97;;;-146.94;96.86
56737;BME280;42618;51.226;4.910;2023-08-30T04:11:42;49701.09;;;-146.94;97.08
56737;BME280;42618;51.226;4.910;2023-08-30T04:14:09;49723.03;;;-146.94;96.66
56737;BME280;42618;51.226;4.910;2023-08-30T04:16:36;49727.00;;;-146.94;97.27
56737;BME280;42618;51.226;4.910;2023-08-30T04:19:06;49707.06;;;-146.94;96.92
56737;BME280;42618;51.226;4.910;2023-08-30T04:21:33;49725.00;;;-146.94;96.46
56737;BME280;42618;51.226;4.910;2023-08-30T04:24:00;49691.13;;;-146.94;96.35
56737;BME280;42618;51.226;4.910;2023-08-30T04:26:26;49719.03;;;-146.94;95.69
56737;BME280;42618;51.226;4.910;2023-08-30T04:28:53;49721.03;;;-146.94;96.37
56737;BME280;42618;51.226;4.910;2023-08-30T04:31:20;49697.09;;;-146.94;95.73
56737;BME280;42618;51.226;4.910;2023-08-30T04:33:47;49713.06;;;-146.94;96.01
56737;BME280;42618;51.226;4.910;2023-08-30T04:36:13;49671.19;;;-146.94;95.83
56737;BME280;42618;51.226;4.910;2023-08-30T04:38:40;49665.22;;;-146.94;95.29
56737;BME280;42618;51.226;4.910;2023-08-30T04:41:22;49697.09;;;-146.94;95.27
56737;BME280;42618;51.226;4.910;2023-08-30T04:43:49;49689.13;;;-146.94;95.19
56737;BME280;42618;51.226;4.910;2023-08-30T04:46:16;49707.06;;;-146.94;95.10
56737;BME280;42618;51.226;4.910;2023-08-30T04:48:43;49691.13;;;-146.94;95.45
56737;BME280;42618;51.226;4.910;2023-08-30T04:51:10;49699.09;;;-146.94;95.30
56737;BME280;42618;51.226;4.910;2023-08-30T04:53:37;49711.06;;;-146.94;95.29
56737;BME280;42618;51.226;4.910;2023-08-30T04:56:11;49707.06;;;-146.94;95.55
56737;BME280;42618;51.226;4.910;2023-08-30T04:58:38;49703.09;;;-146.94;95.01
56737;BME280;42618;51.226;4.910;2023-08-30T05:01:08;49679.16;;;-146.94;94.84
56737;BME280;42618;51.226;4.910;2023-08-30T05:03:37;49685.13;;;-146.94;94.70
56737;BME280;42618;51.226;4.910;2023-08-30T05:06:07;49659.22;;;-146.94;94.76
56737;BME280;42618;51.226;4.910;2023-08-30T05:08:34;49717.03;;;-146.94;93.83
56737;BME280;42618;51.226;4.910;2023-08-30T05:11:01;49705.06;;;-146.94;93.84
56737;BME280;42618;51.226;4.910;2023-08-30T05:13:32;49727.00;;;-146.94;93.63
56737;BME280;42618;51.226;4.910;2023-08-30T05:15:59;49723.03;;;-146.94;93.79
56737;BME280;42618;51.226;4.910;2023-08-30T05:18:27;49691.13;;;-146.94;93.24
56737;BME280;42618;51.226;4.910;2023-08-30T05:20:53;49649.25;;;-146.94;93.20
56737;BME280;42618;51.226;4.910;2023-08-30T05:23:20;49687.13;;;-146.94;92.69
56737;BME280;42618;51.226;4.910;2023-08-30T05:25:47;49711.06;;;-146.94;93.34
56737;BME280;42618;51.226;4.910;2023-08-30T05:28:15;49709.06;;;-146.94;92.80
56737;BME280;42618;51.226;4.910;2023-08-30T05:30:43;49709.06;;;-146.94;92.75
56737;BME280;42618;51.226;4.910;2023-08-30T05:33:25;49697.09;;;-146.94;92.28
56737;BME280;42618;51.226;4.910;2023-08-30T05:36:02;49659.22;;;-146.94;92.82
56737;BME280;42618;51.226;4.910;2023-08-30T05:38:55;49715.03;;;-146.94;92.45
56737;BME280;42618;51.226;4.910;2023-08-30T05:41:31;49707.06;;;-146.94;92.76
56737;BME280;42618;51.226;4.910;2023-08-30T05:43:58;49699.09;;;-146.94;93.01
56737;BME280;42618;51.226;4.910;2023-08-30T05:46:25;49721.03;;;-146.94;93.17
56737;BME280;42618;51.226;4.910;2023-08-30T05:48:51;49661.22;;;-146.94;93.67
56737;BME280;42618;51.226;4.910;2023-08-30T05:51:18;49695.09;;;-146.94;94.54
56737;BME280;42618;51.226;4.910;2023-08-30T05:53:46;49715.03;;;-146.94;96.48
56737;BME280;42618;51.226;4.910;2023-08-30T05:56:14;49703.09;;;-146.94;97.23
56737;BME280;42618;51.226;4.910;2023-08-30T05:58:40;49701.09;;;-146.94;97.23
56737;BME280;42618;51.226;4.910;2023-08-30T06:01:07;49715.03;;;-146.94;98.04
56737;BME280;42618;51.226;4.910;2023-08-30T06:03:34;49713.06;;;-146.94;99.55
56737;BME280;42618;51.226;4.910;2023-08-30T06:06:01;49734.97;;;-146.94;100.00
56737;BME280;42618;51.226;4.910;2023-08-30T06:08:28;49697.09;;;-146.94;100.00
56737;BME280;42618;51.226;4.910;2023-08-30T06:10:55;49703.09;;;-146.94;100.00
56737;BME280;42618;51.226;4.910;2023-08-30T06:13:22;49701.09;;;-146.94;100.00
56737;BME280;42618;51.226;4.910;2023-08-30T06:15:51;49699.09;;;-146.94;100.00
56737;BME280;42618;51.226;4.910;2023-08-30T06:18:18;49701.09;;;-146.94;100.00
56737;BME280;42618;51.226;4.910;2023-08-30T06:20:45;49740.97;;;-146.94;100.00
56737;BME280;42618;51.226;4.910;2023-08-30T06:23:13;49707.06;;;-146.94;100.00
56737;BME280;42618;51.226;4.910;2023-08-30T06:25:40;49740.97;;;-146.94;100.00
56737;BME280;42618;51.226;4.910;2023-08-30T06:28:07;49713.06;;;-146.94;100.00
56737;BME280;42618;51.226;4.910;2023-08-30T06:30:34;49709.06;;;-146.94;100.00
56737;BME280;42618;51.226;4.910;2023-08-30T06:33:01;49719.03;;;-146.94;100.00
56737;BME280;42618;51.226;4.910;2023-08-30T06:35:28;49727.00;;;-146.94;100.00
56737;BME280;42618;51.226;4.910;2023-08-30T06:37:54;49723.03;;;-146.94;100.00
56737;BME280;42618;51.226;4.910;2023-08-30T06:40:22;49734.97;;;-146.94;100.00
56737;BME280;42618;51.226;4.910;2023-08-30T06:42:49;49697.09;;;-146.94;100.00
56737;BME280;42618;51.226;4.910;2023-08-30T06:45:16;49693.13;;;-146.94;100.00
56737;BME280;42618;51.226;4.910;2023-08-30T06:47:43;49701.09;;;-146.94;100.00
56737;BME280;42618;51.226;4.910;2023-08-30T06:50:10;49697.09;;;-146.94;100.00
56737;BME280;42618;51.226;4.910;2023-08-30T06:52:36;49689.13;;;-146.94;100.00
56737;BME280;42618;51.226;4.910;2023-08-30T06:55:04;49689.13;;;-146.94;100.00
56737;BME280;42618;51.226;4.910;2023-08-30T06:57:30;49723.03;;;-146.94;100.00
56737;BME280;42618;51.226;4.910;2023-08-30T06:59:57;49727.00;;;-146.94;100.00
56737;BME280;42618;51.226;4.910;2023-08-30T07:02:26;49744.94;;;-146.94;100.00
56737;BME280;42618;51.226;4.910;2023-08-30T07:04:54;49691.13;;;-146.94;100.00
56737;BME280;42618;51.226;4.910;2023-08-30T07:07:21;49736.97;;;-146.94;100.00
56737;BME280;42618;51.226;4.910;2023-08-30T07:09:48;49740.97;;;-146.94;100.00
56737;BME280;42618;51.226;4.910;2023-08-30T07:12:15;49733.00;;;-146.94;100.00
56737;BME280;42618;51.226;4.910;2023-08-30T07:14:41;49707.06;;;-146.94;100.00
56737;BME280;42618;51.226;4.910;2023-08-30T07:17:09;49707.06;;;-146.94;100.00
56737;BME280;42618;51.226;4.910;2023-08-30T07:19:36;49705.06;;;-146.94;100.00
56737;BME280;42618;51.226;4.910;2023-08-30T07:22:03;49715.03;;;-146.94;100.00
56737;BME280;42618;51.226;4.910;2023-08-30T07:24:30;49727.00;;;-146.94;100.00
56737;BME280;42618;51.226;4.910;2023-08-30T07:26:57;49736.97;;;-146.94;100.00
56737;BME280;42618;51.226;4.910;2023-08-30T07:29:24;49695.09;;;-146.94;100.00
56737;BME280;42618;51.226;4.910;2023-08-30T07:31:51;49723.03;;;-146.94;100.00
56737;BME280;42618;51.226;4.910;2023-08-30T07:34:20;49707.06;;;-146.94;100.00
56737;BME280;42618;51.226;4.910;2023-08-30T07:36:47;49731.00;;;-146.94;100.00
56737;BME280;42618;51.226;4.910;2023-08-30T07:39:14;49719.03;;;-146.94;100.00
56737;BME280;42618;51.226;4.910;2023-08-30T07:41:41;49707.06;;;-146.94;100.00
56737;BME280;42618;51.226;4.910;2023-08-30T07:44:08;49719.03;;;-146.94;100.00
56737;BME280;42618;51.226;4.910;2023-08-30T07:46:35;49691.13;;;-146.94;100.00
56737;BME280;42618;51.226;4.910;2023-08-30T07:49:02;49697.09;;;-146.94;100.00
56737;BME280;42618;51.226;4.910;2023-08-30T07:51:29;49725.00;;;-146.94;100.00
56737;BME280;42618;51.226;4.910;2023-08-30T07:53:56;49727.00;;;-146.94;100.00
56737;BME280;42618;51.226;4.910;2023-08-30T07:56:23;49731.00;;;-146.94;100.00
56737;BME280;42618;51.226;4.910;2023-08-30T07:58:49;49707.06;;;-146.94;100.00
56737;BME280;42618;51.226;4.910;2023-08-30T08:01:16;49715.03;;;-146.94;100.00
56737;BME280;42618;51.226;4.910;2023-08-30T08:03:43;49699.09;;;-146.94;100.00
56737;BME280;42618;51.226;4.910;2023-08-30T08:06:30;49679.16;;;-146.94;100.00
56737;BME280;42618;51.226;4.910;2023-08-30T08:08:57;49707.06;;;-146.94;100.00
56737;BME280;42618;51.226;4.910;2023-08-30T08:11:25;49677.16;;;-146.94;100.00
56737;BME280;42618;51.226;4.910;2023-08-30T08:13:52;49719.03;;;-146.94;100.00
56737;BME280;42618;51.226;4.910;2023-08-30T08:16:19;49699.09;;;-146.94;100.00
56737;BME280;42618;51.226;4.910;2023-08-30T08:18:46;49703.09;;;-146.94;100.00
56737;BME280;42618;51.226;4.910;2023-08-30T08:21:14;49683.16;;;-146.94;100.00
56737;BME280;42618;51.226;4.910;2023-08-30T08:23:41;49671.19;;;-146.94;100.00
56737;BME280;42618;51.226;4.910;2023-08-30T08:26:08;49725.00;;;-146.94;100.00
56737;BME280;42618;51.226;4.910;2023-08-30T08:28:35;49736.97;;;-146.94;100.00
56737;BME280;42618;51.226;4.910;2023-08-30T08:31:01;49723.03;;;-146.94;100.00
56737;BME280;42618;51.226;4.910;2023-08-30T08:33:28;49715.03;;;-146.94;100.00
56737;BME280;42618;51.226;4.910;2023-08-30T08:35:55;49687.13;;;-146.94;100.00
56737;BME280;42618;51.226;4.910;2023-08-30T08:38:22;49731.00;;;-146.94;100.00
56737;BME280;42618;51.226;4.910;2023-08-30T08:40:51;49695.09;;;-146.94;100.00
56737;BME280;42618;51.226;4.910;2023-08-30T08:43:20;49693.13;;;-146.94;100.00
56737;BME280;42618;51.226;4.910;2023-08-30T08:45:47;49699.09;;;-146.94;100.00
56737;BME280;42618;51.226;4.910;2023-08-30T08:48:14;49711.06;;;-146.94;100.00
56737;BME280;42618;51.226;4.910;2023-08-30T08:50:41;49729.00;;;-146.94;100.00
56737;BME280;42618;51.226;4.910;2023-08-30T08:53:09;49717.03;;;-146.94;100.00
56737;BME280;42618;51.226;4.910;2023-08-30T08:55:36;49738.97;;;-146.94;100.00
56737;BME280;42618;51.226;4.910;2023-08-30T08:58:04;49719.03;;;-146.94;100.00
56737;BME280;42618;51.226;4.910;2023-08-30T09:00:31;49715.03;;;-146.94;100.00
56737;BME280;42618;51.226;4.910;2023-08-30T09:02:58;49693.13;;;-146.94;100.00
56737;BME280;42618;51.226;4.910;2023-08-30T09:05:25;49689.13;;;-146.94;100.00
56737;BME280;42618;51.226;4.910;2023-08-30T09:07:53;49681.16;;;-146.94;100.00
56737;BME280;42618;51.226;4.910;2023-08-30T09:10:21;49715.03;;;-146.94;100.00
56737;BME280;42618;51.226;4.910;2023-08-30T09:12:48;49671.19;;;-146.94;100.00
56737;BME280;42618;51.226;4.910;2023-08-30T09:15:15;49695.09;;;-146.94;100.00
56737;BME280;42618;51.226;4.910;2023-08-30T09:17:45;49689.13;;;-146.94;100.00
56737;BME280;42618;51.226;4.910;2023-08-30T09:20:14;49707.06;;;-146.94;100.00
56737;BME280;42618;51.226;4.910;2023-08-30T09:22:42;49647.25;;;-146.94;100.00
56737;BME280;42618;51.226;4.910;2023-08-30T09:25:10;49671.19;;;-146.94;100.00
56737;BME280;42618;51.226;4.910;2023-08-30T09:27:38;49675.19;;;-146.94;100.00
56737;BME280;42618;51.226;4.910;2023-08-30T09:30:08;49687.13;;;-146.94;100.00
56737;BME280;42618;51.226;4.910;2023-08-30T09:32:40;49691.13;;;-146.94;100.00
56737;BME280;42618;51.226;4.910;2023-08-30T09:35:09;49683.16;;;-146.94;100.00
56737;BME280;42618;51.226;4.910;2023-08-30T09:37:36;49687.13;;;-146.94;100.00
56737;BME280;42618;51.226;4.910;2023-08-30T09:40:03;49691.13;;;-146.94;100.00
56737;BME280;42618;51.226;4.910;2023-08-30T09:42:31;49687.13;;;-146.94;100.00
56737;BME280;42618;51.226;4.910;2023-08-30T09:44:57;49717.03;;;-146.94;100.00
56737;BME280;42618;51.226;4.910;2023-08-30T09:47:25;49701.09;;;-146.94;100.00
56737;BME280;42618;51.226;4.910;2023-08-30T09:49:56;49695.09;;;-146.94;100.00
56737;BME280;42618;51.226;4.910;2023-08-30T09:52:26;49675.19;;;-146.94;100.00
56737;BME280;42618;51.226;4.910;2023-08-30T09:54:56;49711.06;;;-146.94;100.00
56737;BME280;42618;51.226;4.910;2023-08-30T09:57:23;49691.13;;;-146.94;100.00
56737;BME280;42618;51.226;4.910;2023-08-30T09:59:50;49697.09;;;-146.94;100.00
56737;BME280;42618;51.226;4.910;2023-08-30T10:02:18;49691.13;;;-146.94;100.00
56737;BME280;42618;51.226;4.910;2023-08-30T10:04:47;49681.16;;;-146.94;100.00
56737;BME280;42618;51.226;4.910;2023-08-30T10:07:15;49669.19;;;-146.94;97.93
56737;BME280;42618;51.226;4.910;2023-08-30T10:09:42;49661.22;;;-146.94;97.43
56737;BME280;42618;51.226;4.910;2023-08-30T10:12:31;49663.22;;;-146.94;96.60
56737;BME280;42618;51.226;4.910;2023-08-30T10:14:59;49647.25;;;-146.94;95.02
56737;BME280;42618;51.226;4.910;2023-08-30T10:17:27;49665.22;;;-146.94;93.70
56737;BME280;42618;51.226;4.910;2023-08-30T10:19:56;49655.25;;;-146.94;92.51
56737;BME280;42618;51.226;4.910;2023-08-30T10:22:24;49695.09;;;-146.94;93.64
56737;BME280;42618;51.226;4.910;2023-08-30T10:24:56;49663.22;;;-146.94;94.98
56737;BME280;42618;51.226;4.910;2023-08-30T10:27:31;49683.16;;;-146.94;90.15
56737;BME280;42618;51.226;4.910;2023-08-30T10:30:04;49667.19;;;-146.94;93.65
56737;BME280;42618;51.226;4.910;2023-08-30T10:32:39;49647.25;;;-146.94;91.82
56737;BME280;42618;51.226;4.910;2023-08-30T10:35:06;49675.19;;;-146.94;90.93
56737;BME280;42618;51.226;4.910;2023-08-30T10:37:32;49671.19;;;-146.94;94.79
56737;BME280;42618;51.226;4.910;2023-08-30T10:40:03;49691.13;;;-146.94;96.03
56737;BME280;42618;51.226;4.910;2023-08-30T10:42:30;49677.16;;;-146.94;93.80
56737;BME280;42618;51.226;4.910;2023-08-30T10:44:59;49731.00;;;-146.94;94.52
56737;BME280;42618;51.226;4.910;2023-08-30T10:47:30;49713.06;;;-146.94;95.70
56737;BME280;42618;51.226;4.910;2023-08-30T10:49:58;49675.19;;;-146.94;94.45
56737;BME280;42618;51.226;4.910;2023-08-30T10:52:27;49687.13;;;-146.94;92.54
56737;BME280;42618;51.226;4.910;2023-08-30T10:55:14;49707.06;;;-146.94;91.77
56737;BME280;42618;51.226;4.910;2023-08-30T10:57:44;49671.19;;;-146.94;90.04
56737;BME280;42618;51.226;4.910;2023-08-30T11:00:18;49695.09;;;-146.94;90.08
56737;BME280;42618;51.226;4.910;2023-08-30T11:02:48;49655.25;;;-146.94;89.83
56737;BME280;42618;51.226;4.910;2023-08-30T11:05:17;49709.06;;;-146.94;90.45
56737;BME280;42618;51.226;4.910;2023-08-30T11:07:44;49719.03;;;-146.94;90.32
56737;BME280;42618;51.226;4.910;2023-08-30T11:10:12;49701.09;;;-146.94;88.47
56737;BME280;42618;51.226;4.910;2023-08-30T11:12:45;49673.19;;;-146.94;88.31
56737;BME280;42618;51.226;4.910;2023-08-30T11:15:13;49675.19;;;-146.94;88.93
56737;BME280;42618;51.226;4.910;2023-08-30T11:17:44;49667.19;;;-146.94;90.65
56737;BME280;42618;51.226;4.910;2023-08-30T11:20:15;49707.06;;;-146.94;90.58
56737;BME280;42618;51.226;4.910;2023-08-30T11:22:48;49679.16;;;-146.94;90.64
56737;BME280;42618;51.226;4.910;2023-08-30T11:25:16;49695.09;;;-146.94;89.65
56737;BME280;42618;51.226;4.910;2023-08-30T11:27:44;49671.19;;;-146.94;88.92
56737;BME280;42618;51.226;4.910;2023-08-30T11:30:12;49639.28;;;-146.94;86.52
56737;BME280;42618;51.226;4.910;2023-08-30T11:32:40;49667.19;;;-146.94;87.17
56737;BME280;42618;51.226;4.910;2023-08-30T11:35:09;49665.22;;;-146.94;87.67
56737;BME280;42618;51.226;4.910;2023-08-30T11:37:36;49647.25;;;-146.94;83.14
56737;BME280;42618;51.226;4.910;2023-08-30T11:40:03;49647.25;;;-146.94;73.93
56737;BME280;42618;51.226;4.910;2023-08-30T11:42:33;49675.19;;;-146.94;72.17
56737;BME280;42618;51.226;4.910;2023-08-30T11:45:00;49677.16;;;-146.94;70.92
56737;BME280;42618;51.226;4.910;2023-08-30T11:47:27;49679.16;;;-146.94;69.38
56737;BME280;42618;51.226;4.910;2023-08-30T11:49:56;49631.31;;;-146.94;68.25
56737;BME280;42618;51.226;4.910;2023-08-30T11:52:24;49635.31;;;-146.94;67.22
56737;BME280;42618;51.226;4.910;2023-08-30T11:54:52;49655.25;;;-146.94;67.10
56737;BME280;42618;51.226;4.910;2023-08-30T11:57:19;49683.16;;;-146.94;65.76
56737;BME280;42618;51.226;4.910;2023-08-30T11:59:47;49651.25;;;-146.94;67.11
56737;BME280;42618;51.226;4.910;2023-08-30T12:02:16;49647.25;;;-146.94;65.25
56737;BME280;42618;51.226;4.910;2023-08-30T12:04:46;49647.25;;;-146.94;63.95
56737;BME280;42618;51.226;4.910;2023-08-30T12:07:26;49601.41;;;-146.94;63.20
56737;BME280;42618;51.226;4.910;2023-08-30T12:10:06;49657.22;;;-146.94;59.37
56737;BME280;42618;51.226;4.910;2023-08-30T12:12:34;49637.28;;;-146.94;57.03
56737;BME280;42618;51.226;4.910;2023-08-30T12:15:11;49641.28;;;-146.94;58.13
56737;BME280;42618;51.226;4.910;2023-08-30T12:17:38;49577.50;;;-146.94;51.26
56737;BME280;42618;51.226;4.910;2023-08-30T12:20:05;49599.41;;;-146.94;48.82
56737;BME280;42618;51.226;4.910;2023-08-30T12:22:37;49603.41;;;-146.94;48.14
56737;BME280;42618;51.226;4.910;2023-08-30T12:25:19;49633.31;;;-146.94;49.96
56737;BME280;42618;51.226;4.910;2023-08-30T12:27:46;49655.25;;;-146.94;47.99
56737;BME280;42618;51.226;4.910;2023-08-30T12:30:14;49619.34;;;-146.94;45.98
56737;BME280;42618;51.226;4.910;2023-08-30T12:32:44;49623.34;;;-146.94;42.35
56737;BME280;42618;51.226;4.910;2023-08-30T12:35:11;49585.47;;;-146.94;42.56
56737;BME280;42618;51.226;4.910;2023-08-30T12:37:38;49571.50;;;-146.94;41.54
56737;BME280;42618;51.226;4.910;2023-08-30T12:40:06;49569.50;;;-146.94;40.33
56737;BME280;42618;51.226;4.910;2023-08-30T12:42:33;49603.41;;;-146.94;40.08
56737;BME280;42618;51.226;4.910;2023-08-30T12:45:00;49577.50;;;-146.94;39.49
56737;BME280;42618;51.226;4.910;2023-08-30T12:47:27;49549.59;;;-146.94;39.32
56737;BME280;42618;51.226;4.910;2023-08-30T12:49:55;49579.47;;;-146.94;39.75